sensor_id;sensor_type;location;lat;lon;timestamp;temperature;humidity
17489;DHT22;8861;52.644;4.734;2024-03-06T00:00:04;7.10;99.90
17489;DHT22;8861;52.644;4.734;2024-03-06T00:02:32;7.00;99.90
17489;DHT22;8861;52.644;4.734;2024-03-06T00:04:59;7.00;99.90
17489;DHT22;8861;52.644;4.734;2024-03-06T00:07:27;7.00;99.90
17489;DHT22;8861;52.644;4.734;2024-03-06T00:09:54;7.00;99.90
17489;DHT22;8861;52.644;4.734;2024-03-06T00:12:22;7.00;99.90
17489;DHT22;8861;52.644;4.734;2024-03-06T00:14:49;7.00;99.90
17489;DHT22;8861;52.644;4.734;2024-03-06T00:17:15;7.10;99.90
17489;DHT22;8861;52.644;4.734;2024-03-06T00:19:42;7.10;99.90
17489;DHT22;8861;52.644;4.734;2024-03-06T00:22:10;7.00;99.90
17489;DHT22;8861;52.644;4.734;2024-03-06T00:24:38;7.00;99.90
17489;DHT22;8861;52.644;4.734;2024-03-06T00:27:05;7.00;99.90
17489;DHT22;8861;52.644;4.734;2024-03-06T00:29:32;7.00;99.90
17489;DHT22;8861;52.644;4.734;2024-03-06T00:32:02;7.00;99.90
17489;DHT22;8861;52.644;4.734;2024-03-06T00:34:29;6.90;99.90
17489;DHT22;8861;52.644;4.734;2024-03-06T00:36:56;7.00;99.90
17489;DHT22;8861;52.644;4.734;2024-03-06T00:39:23;7.00;99.90
17489;DHT22;8861;52.644;4.734;2024-03-06T00:41:52;7.00;99.90
17489;DHT22;8861;52.644;4.734;2024-03-06T00:44:22;7.00;99.90
17489;DHT22;8861;52.644;4.734;2024-03-06T00:46:49;7.10;99.90
17489;DHT22;8861;52.644;4.734;2024-03-06T00:49:15;7.00;99.90
17489;DHT22;8861;52.644;4.734;2024-03-06T00:51:42;7.10;99.90
17489;DHT22;8861;52.644;4.734;2024-03-06T00:54:10;7.10;99.90
17489;DHT22;8861;52.644;4.734;2024-03-06T00:56:37;7.10;99.90
17489;DHT22;8861;52.644;4.734;2024-03-06T00:59:06;7.10;99.90
17489;DHT22;8861;52.644;4.734;2024-03-06T01:01:34;7.10;99.90
17489;DHT22;8861;52.644;4.734;2024-03-06T01:04:01;7.10;99.90
17489;DHT22;8861;52.644;4.734;2024-03-06T01:06:28;7.10;99.90
17489;DHT22;8861;52.644;4.734;2024-03-06T01:08:55;7.00;99.90
17489;DHT22;8861;52.644;4.734;2024-03-06T01:11:22;7.10;99.90
17489;DHT22;8861;52.644;4.734;2024-03-06T01:13:49;7.10;99.90
17489;DHT22;8861;52.644;4.734;2024-03-06T01:16:17;7.20;99.90
17489;DHT22;8861;52.644;4.734;2024-03-06T01:18:45;7.20;99.90
17489;DHT22;8861;52.644;4.734;2024-03-06T01:21:12;7.20;99.90
17489;DHT22;8861;52.644;4.734;2024-03-06T01:23:40;7.20;99.90
17489;DHT22;8861;52.644;4.734;2024-03-06T01:26:08;7.20;99.90
17489;DHT22;8861;52.644;4.734;2024-03-06T01:28:35;7.10;99.90
17489;DHT22;8861;52.644;4.734;2024-03-06T01:31:02;7.10;99.90
17489;DHT22;8861;52.644;4.734;2024-03-06T01:33:31;7.10;99.90
17489;DHT22;8861;52.644;4.734;2024-03-06T01:35:57;7.10;99.90
17489;DHT22;8861;52.644;4.734;2024-03-06T01:38:24;7.10;99.90
17489;DHT22;8861;52.644;4.734;2024-03-06T01:40:52;7.10;99.90
17489;DHT22;8861;52.644;4.734;2024-03-06T01:43:20;7.10;99.90
17489;DHT22;8861;52.644;4.734;2024-03-06T01:45:48;7.10;99.90
17489;DHT22;8861;52.644;4.734;2024-03-06T01:48:16;7.10;99.90
17489;DHT22;8861;52.644;4.734;2024-03-06T01:50:44;7.10;99.90
17489;DHT22;8861;52.644;4.734;2024-03-06T01:53:13;7.10;99.90
17489;DHT22;8861;52.644;4.734;2024-03-06T01:55:41;7.10;99.90
17489;DHT22;8861;52.644;4.734;2024-03-06T01:58:08;7.10;99.90
17489;DHT22;8861;52.644;4.734;2024-03-06T02:00:36;7.20;99.90
17489;DHT22;8861;52.644;4.734;2024-03-06T02:05:39;7.10;99.90
17489;DHT22;8861;52.644;4.734;2024-03-06T02:08:08;7.20;99.90
17489;DHT22;8861;52.644;4.734;2024-03-06T02:10:35;7.20;99.90
17489;DHT22;8861;52.644;4.734;2024-03-06T02:13:03;7.20;99.90
17489;DHT22;8861;52.644;4.734;2024-03-06T02:15:30;7.20;99.90
17489;DHT22;8861;52.644;4.734;2024-03-06T02:17:57;7.20;99.90
17489;DHT22;8861;52.644;4.734;2024-03-06T02:20:26;7.20;99.90
17489;DHT22;8861;52.644;4.734;2024-03-06T02:22:53;7.20;99.90
17489;DHT22;8861;52.644;4.734;2024-03-06T02:25:20;7.20;99.90
17489;DHT22;8861;52.644;4.734;2024-03-06T02:27:47;7.20;99.90
17489;DHT22;8861;52.644;4.734;2024-03-06T02:30:14;7.20;99.90
17489;DHT22;8861;52.644;4.734;2024-03-06T02:32:41;7.20;99.90
17489;DHT22;8861;52.644;4.734;2024-03-06T02:35:09;7.30;99.90
17489;DHT22;8861;52.644;4.734;2024-03-06T02:37:38;7.30;99.90
17489;DHT22;8861;52.644;4.734;2024-03-06T02:40:06;7.30;99.90
17489;DHT22;8861;52.644;4.734;2024-03-06T02:42:34;7.30;99.90
17489;DHT22;8861;52.644;4.734;2024-03-06T02:45:01;7.30;99.90
17489;DHT22;8861;52.644;4.734;2024-03-06T02:47:28;7.30;99.90
17489;DHT22;8861;52.644;4.734;2024-03-06T02:49:54;7.30;99.90
17489;DHT22;8861;52.644;4.734;2024-03-06T02:52:21;7.30;99.90
17489;DHT22;8861;52.644;4.734;2024-03-06T02:54:50;7.30;99.90
17489;DHT22;8861;52.644;4.734;2024-03-06T02:57:17;7.30;99.90
17489;DHT22;8861;52.644;4.734;2024-03-06T02:59:43;7.30;99.90
17489;DHT22;8861;52.644;4.734;2024-03-06T03:02:11;7.20;99.90
17489;DHT22;8861;52.644;4.734;2024-03-06T03:04:38;7.20;99.90
17489;DHT22;8861;52.644;4.734;2024-03-06T03:07:05;7.30;99.90
17489;DHT22;8861;52.644;4.734;2024-03-06T03:09:32;7.20;99.90
17489;DHT22;8861;52.644;4.734;2024-03-06T03:12:03;7.30;99.90
17489;DHT22;8861;52.644;4.734;2024-03-06T03:14:30;7.20;99.90
17489;DHT22;8861;52.644;4.734;2024-03-06T03:16:58;7.20;99.90
17489;DHT22;8861;52.644;4.734;2024-03-06T03:19:25;7.20;99.90
17489;DHT22;8861;52.644;4.734;2024-03-06T03:21:52;7.20;99.90
17489;DHT22;8861;52.644;4.734;2024-03-06T03:24:19;7.20;99.90
17489;DHT22;8861;52.644;4.734;2024-03-06T03:26:47;7.20;99.90
17489;DHT22;8861;52.644;4.734;2024-03-06T03:29:15;7.10;99.90
17489;DHT22;8861;52.644;4.734;2024-03-06T03:31:42;7.10;99.90
17489;DHT22;8861;52.644;4.734;2024-03-06T03:34:12;7.10;99.90
17489;DHT22;8861;52.644;4.734;2024-03-06T03:36:42;7.10;99.90
17489;DHT22;8861;52.644;4.734;2024-03-06T03:39:11;7.10;99.90
17489;DHT22;8861;52.644;4.734;2024-03-06T03:41:45;7.10;99.90
17489;DHT22;8861;52.644;4.734;2024-03-06T03:44:12;7.00;99.90
17489;DHT22;8861;52.644;4.734;2024-03-06T03:46:41;7.00;99.90
17489;DHT22;8861;52.644;4.734;2024-03-06T03:49:09;6.90;99.90
17489;DHT22;8861;52.644;4.734;2024-03-06T03:51:36;6.80;99.90
17489;DHT22;8861;52.644;4.734;2024-03-06T03:54:04;6.70;99.90
17489;DHT22;8861;52.644;4.734;2024-03-06T03:56:31;6.70;99.90
17489;DHT22;8861;52.644;4.734;2024-03-06T03:58:59;6.50;99.90
17489;DHT22;8861;52.644;4.734;2024-03-06T04:01:26;6.50;99.90
17489;DHT22;8861;52.644;4.734;2024-03-06T04:03:54;6.40;99.90
17489;DHT22;8861;52.644;4.734;2024-03-06T04:06:21;6.30;99.90
17489;DHT22;8861;52.644;4.734;2024-03-06T04:08:48;6.30;99.90
17489;DHT22;8861;52.644;4.734;2024-03-06T04:11:15;6.20;99.90
17489;DHT22;8861;52.644;4.734;2024-03-06T04:13:42;6.20;99.90
17489;DHT22;8861;52.644;4.734;2024-03-06T04:16:09;6.10;99.90
17489;DHT22;8861;52.644;4.734;2024-03-06T04:18:36;6.00;99.90
17489;DHT22;8861;52.644;4.734;2024-03-06T04:21:06;6.00;99.90
17489;DHT22;8861;52.644;4.734;2024-03-06T04:23:33;5.90;99.90
17489;DHT22;8861;52.644;4.734;2024-03-06T04:26:01;5.90;99.90
17489;DHT22;8861;52.644;4.734;2024-03-06T04:28:28;5.90;99.90
17489;DHT22;8861;52.644;4.734;2024-03-06T04:30:55;5.80;99.90
17489;DHT22;8861;52.644;4.734;2024-03-06T04:33:22;5.80;99.90
17489;DHT22;8861;52.644;4.734;2024-03-06T04:35:49;5.70;99.90
17489;DHT22;8861;52.644;4.734;2024-03-06T04:38:17;5.70;99.90
17489;DHT22;8861;52.644;4.734;2024-03-06T04:40:44;5.70;99.90
17489;DHT22;8861;52.644;4.734;2024-03-06T04:43:11;5.60;99.90
17489;DHT22;8861;52.644;4.734;2024-03-06T04:45:38;5.60;99.90
17489;DHT22;8861;52.644;4.734;2024-03-06T04:48:06;5.60;99.90
17489;DHT22;8861;52.644;4.734;2024-03-06T04:50:34;5.60;99.90
17489;DHT22;8861;52.644;4.734;2024-03-06T04:53:03;5.50;99.90
17489;DHT22;8861;52.644;4.734;2024-03-06T04:55:32;5.50;99.90
17489;DHT22;8861;52.644;4.734;2024-03-06T04:57:59;5.40;99.90
17489;DHT22;8861;52.644;4.734;2024-03-06T05:00:26;5.40;99.90
17489;DHT22;8861;52.644;4.734;2024-03-06T05:02:54;5.40;99.90
17489;DHT22;8861;52.644;4.734;2024-03-06T05:05:22;5.40;99.90
17489;DHT22;8861;52.644;4.734;2024-03-06T05:07:50;5.40;99.90
17489;DHT22;8861;52.644;4.734;2024-03-06T05:10:17;5.40;99.90
17489;DHT22;8861;52.644;4.734;2024-03-06T05:12:45;5.30;99.90
17489;DHT22;8861;52.644;4.734;2024-03-06T05:15:12;5.40;99.90
17489;DHT22;8861;52.644;4.734;2024-03-06T05:17:39;5.30;99.90
17489;DHT22;8861;52.644;4.734;2024-03-06T05:20:07;5.30;99.90
17489;DHT22;8861;52.644;4.734;2024-03-06T05:22:34;5.30;99.90
17489;DHT22;8861;52.644;4.734;2024-03-06T05:25:02;5.30;99.90
17489;DHT22;8861;52.644;4.734;2024-03-06T05:27:28;5.30;99.90
17489;DHT22;8861;52.644;4.734;2024-03-06T05:29:57;5.30;99.90
17489;DHT22;8861;52.644;4.734;2024-03-06T05:32:23;5.30;99.90
17489;DHT22;8861;52.644;4.734;2024-03-06T05:34:50;5.30;99.90
17489;DHT22;8861;52.644;4.734;2024-03-06T05:37:17;5.30;99.90
17489;DHT22;8861;52.644;4.734;2024-03-06T05:39:48;5.40;99.90
17489;DHT22;8861;52.644;4.734;2024-03-06T05:42:15;5.40;99.90
17489;DHT22;8861;52.644;4.734;2024-03-06T05:44:42;5.40;99.90
17489;DHT22;8861;52.644;4.734;2024-03-06T05:47:10;5.50;99.90
17489;DHT22;8861;52.644;4.734;2024-03-06T05:49:37;5.50;99.90
17489;DHT22;8861;52.644;4.734;2024-03-06T05:52:04;5.50;99.90
17489;DHT22;8861;52.644;4.734;2024-03-06T05:54:31;5.60;99.90
17489;DHT22;8861;52.644;4.734;2024-03-06T05:57:00;5.60;99.90
17489;DHT22;8861;52.644;4.734;2024-03-06T05:59:29;5.70;99.90
17489;DHT22;8861;52.644;4.734;2024-03-06T06:01:55;5.70;99.90
17489;DHT22;8861;52.644;4.734;2024-03-06T06:04:24;5.80;99.90
17489;DHT22;8861;52.644;4.734;2024-03-06T06:06:51;5.80;99.90
17489;DHT22;8861;52.644;4.734;2024-03-06T06:09:18;5.90;99.90
17489;DHT22;8861;52.644;4.734;2024-03-06T06:11:45;5.90;99.90
17489;DHT22;8861;52.644;4.734;2024-03-06T06:14:13;5.90;99.90
17489;DHT22;8861;52.644;4.734;2024-03-06T06:16:41;5.90;99.90
17489;DHT22;8861;52.644;4.734;2024-03-06T06:19:08;5.90;99.90
17489;DHT22;8861;52.644;4.734;2024-03-06T06:21:38;5.90;99.90
17489;DHT22;8861;52.644;4.734;2024-03-06T06:24:05;5.90;99.90
17489;DHT22;8861;52.644;4.734;2024-03-06T06:26:32;6.00;99.90
17489;DHT22;8861;52.644;4.734;2024-03-06T06:29:02;6.00;99.90
17489;DHT22;8861;52.644;4.734;2024-03-06T06:31:29;6.00;99.90
17489;DHT22;8861;52.644;4.734;2024-03-06T06:33:56;6.00;99.90
17489;DHT22;8861;52.644;4.734;2024-03-06T06:36:23;6.00;99.90
17489;DHT22;8861;52.644;4.734;2024-03-06T06:38:54;6.00;99.90
17489;DHT22;8861;52.644;4.734;2024-03-06T06:41:22;6.00;99.90
17489;DHT22;8861;52.644;4.734;2024-03-06T06:43:50;6.00;99.90
17489;DHT22;8861;52.644;4.734;2024-03-06T06:46:18;6.00;99.90
17489;DHT22;8861;52.644;4.734;2024-03-06T06:48:46;6.10;99.90
17489;DHT22;8861;52.644;4.734;2024-03-06T06:51:14;6.20;99.90
17489;DHT22;8861;52.644;4.734;2024-03-06T06:53:41;6.30;99.90
17489;DHT22;8861;52.644;4.734;2024-03-06T06:56:09;6.30;99.90
17489;DHT22;8861;52.644;4.734;2024-03-06T06:58:37;6.40;99.90
17489;DHT22;8861;52.644;4.734;2024-03-06T07:01:08;6.50;99.90
17489;DHT22;8861;52.644;4.734;2024-03-06T07:03:35;6.50;99.90
17489;DHT22;8861;52.644;4.734;2024-03-06T07:06:02;6.60;99.90
17489;DHT22;8861;52.644;4.734;2024-03-06T07:08:30;6.70;99.90
17489;DHT22;8861;52.644;4.734;2024-03-06T07:10:57;6.80;99.90
17489;DHT22;8861;52.644;4.734;2024-03-06T07:13:25;6.90;99.90
17489;DHT22;8861;52.644;4.734;2024-03-06T07:15:52;6.90;99.90
17489;DHT22;8861;52.644;4.734;2024-03-06T07:18:19;7.00;99.90
17489;DHT22;8861;52.644;4.734;2024-03-06T07:20:46;7.00;99.90
17489;DHT22;8861;52.644;4.734;2024-03-06T07:23:13;7.10;99.90
17489;DHT22;8861;52.644;4.734;2024-03-06T07:25:41;7.10;99.90
17489;DHT22;8861;52.644;4.734;2024-03-06T07:28:08;7.20;99.90
17489;DHT22;8861;52.644;4.734;2024-03-06T07:30:36;7.30;99.90
17489;DHT22;8861;52.644;4.734;2024-03-06T07:33:03;7.30;99.90
17489;DHT22;8861;52.644;4.734;2024-03-06T07:35:30;7.30;99.90
17489;DHT22;8861;52.644;4.734;2024-03-06T07:37:57;7.40;99.90
17489;DHT22;8861;52.644;4.734;2024-03-06T07:40:25;7.40;99.90
17489;DHT22;8861;52.644;4.734;2024-03-06T07:42:51;7.50;99.90
17489;DHT22;8861;52.644;4.734;2024-03-06T07:45:18;7.60;99.90
17489;DHT22;8861;52.644;4.734;2024-03-06T07:47:47;7.60;99.90
17489;DHT22;8861;52.644;4.734;2024-03-06T07:50:14;7.60;99.90
17489;DHT22;8861;52.644;4.734;2024-03-06T07:52:44;7.60;99.90
17489;DHT22;8861;52.644;4.734;2024-03-06T07:55:11;7.70;99.90
17489;DHT22;8861;52.644;4.734;2024-03-06T07:57:38;7.70;99.90
17489;DHT22;8861;52.644;4.734;2024-03-06T08:00:06;7.80;99.90
17489;DHT22;8861;52.644;4.734;2024-03-06T08:02:40;7.90;99.90
17489;DHT22;8861;52.644;4.734;2024-03-06T08:05:10;8.00;99.90
17489;DHT22;8861;52.644;4.734;2024-03-06T08:07:38;8.00;99.90
17489;DHT22;8861;52.644;4.734;2024-03-06T08:10:08;8.10;99.90
17489;DHT22;8861;52.644;4.734;2024-03-06T08:12:38;8.10;99.90
17489;DHT22;8861;52.644;4.734;2024-03-06T08:15:07;8.10;99.90
17489;DHT22;8861;52.644;4.734;2024-03-06T08:17:35;8.10;99.90
17489;DHT22;8861;52.644;4.734;2024-03-06T08:20:02;8.10;99.90
17489;DHT22;8861;52.644;4.734;2024-03-06T08:22:34;8.10;99.90
17489;DHT22;8861;52.644;4.734;2024-03-06T08:25:05;8.20;99.90
17489;DHT22;8861;52.644;4.734;2024-03-06T08:27:34;8.20;99.90
17489;DHT22;8861;52.644;4.734;2024-03-06T08:30:01;8.30;99.90
17489;DHT22;8861;52.644;4.734;2024-03-06T08:32:30;8.30;99.90
17489;DHT22;8861;52.644;4.734;2024-03-06T08:34:57;8.40;99.90
17489;DHT22;8861;52.644;4.734;2024-03-06T08:37:24;8.40;99.90
17489;DHT22;8861;52.644;4.734;2024-03-06T08:39:53;8.40;99.90
17489;DHT22;8861;52.644;4.734;2024-03-06T08:42:20;8.40;99.90
17489;DHT22;8861;52.644;4.734;2024-03-06T08:44:47;8.40;99.90
17489;DHT22;8861;52.644;4.734;2024-03-06T08:47:15;8.50;99.90
17489;DHT22;8861;52.644;4.734;2024-03-06T08:49:41;8.50;99.90
17489;DHT22;8861;52.644;4.734;2024-03-06T08:52:08;8.60;99.90
17489;DHT22;8861;52.644;4.734;2024-03-06T08:54:36;8.60;99.90
17489;DHT22;8861;52.644;4.734;2024-03-06T08:57:05;8.70;99.90
17489;DHT22;8861;52.644;4.734;2024-03-06T08:59:32;8.70;99.90
17489;DHT22;8861;52.644;4.734;2024-03-06T09:02:12;8.70;99.90
17489;DHT22;8861;52.644;4.734;2024-03-06T09:04:39;8.80;99.90
17489;DHT22;8861;52.644;4.734;2024-03-06T09:07:06;8.80;99.90
17489;DHT22;8861;52.644;4.734;2024-03-06T09:09:33;8.80;99.90
17489;DHT22;8861;52.644;4.734;2024-03-06T09:12:00;8.90;99.90
17489;DHT22;8861;52.644;4.734;2024-03-06T09:14:32;8.90;99.90
17489;DHT22;8861;52.644;4.734;2024-03-06T09:16:59;9.00;99.90
17489;DHT22;8861;52.644;4.734;2024-03-06T09:19:26;9.10;99.90
17489;DHT22;8861;52.644;4.734;2024-03-06T09:21:53;9.10;99.90
17489;DHT22;8861;52.644;4.734;2024-03-06T09:24:21;9.20;99.90
17489;DHT22;8861;52.644;4.734;2024-03-06T09:26:48;9.30;99.90
17489;DHT22;8861;52.644;4.734;2024-03-06T09:29:16;9.30;99.90
17489;DHT22;8861;52.644;4.734;2024-03-06T09:31:45;9.30;99.90
17489;DHT22;8861;52.644;4.734;2024-03-06T09:34:13;9.40;99.90
17489;DHT22;8861;52.644;4.734;2024-03-06T09:36:45;9.50;99.90
17489;DHT22;8861;52.644;4.734;2024-03-06T09:39:13;9.60;99.90
17489;DHT22;8861;52.644;4.734;2024-03-06T09:41:42;9.60;99.90
17489;DHT22;8861;52.644;4.734;2024-03-06T09:44:10;9.80;99.90
17489;DHT22;8861;52.644;4.734;2024-03-06T09:46:37;9.80;99.90
17489;DHT22;8861;52.644;4.734;2024-03-06T09:49:07;9.90;99.90
17489;DHT22;8861;52.644;4.734;2024-03-06T09:51:36;10.00;99.90
17489;DHT22;8861;52.644;4.734;2024-03-06T09:54:05;10.10;99.90
17489;DHT22;8861;52.644;4.734;2024-03-06T09:56:35;10.20;99.90
17489;DHT22;8861;52.644;4.734;2024-03-06T09:59:02;10.40;99.90
17489;DHT22;8861;52.644;4.734;2024-03-06T10:01:30;10.50;99.90
17489;DHT22;8861;52.644;4.734;2024-03-06T10:03:58;10.60;99.90
17489;DHT22;8861;52.644;4.734;2024-03-06T10:06:26;10.70;99.90
17489;DHT22;8861;52.644;4.734;2024-03-06T10:09:03;10.80;99.90
17489;DHT22;8861;52.644;4.734;2024-03-06T10:11:39;10.90;99.90
17489;DHT22;8861;52.644;4.734;2024-03-06T10:14:08;11.00;99.90
17489;DHT22;8861;52.644;4.734;2024-03-06T10:16:36;11.10;99.90
17489;DHT22;8861;52.644;4.734;2024-03-06T10:19:15;11.10;99.90
17489;DHT22;8861;52.644;4.734;2024-03-06T10:21:47;11.20;99.90
17489;DHT22;8861;52.644;4.734;2024-03-06T10:24:18;11.40;99.90
17489;DHT22;8861;52.644;4.734;2024-03-06T10:26:45;11.60;99.90
17489;DHT22;8861;52.644;4.734;2024-03-06T10:29:15;11.80;99.90
17489;DHT22;8861;52.644;4.734;2024-03-06T10:31:48;11.80;99.90
17489;DHT22;8861;52.644;4.734;2024-03-06T10:34:16;11.90;99.90
17489;DHT22;8861;52.644;4.734;2024-03-06T10:36:45;12.00;99.90
17489;DHT22;8861;52.644;4.734;2024-03-06T10:39:12;12.10;99.90
17489;DHT22;8861;52.644;4.734;2024-03-06T10:41:40;12.20;99.90
17489;DHT22;8861;52.644;4.734;2024-03-06T10:44:11;12.20;99.90
17489;DHT22;8861;52.644;4.734;2024-03-06T10:46:41;12.40;99.90
17489;DHT22;8861;52.644;4.734;2024-03-06T10:49:10;12.50;99.90
17489;DHT22;8861;52.644;4.734;2024-03-06T10:51:39;12.50;99.90
17489;DHT22;8861;52.644;4.734;2024-03-06T10:54:08;12.50;99.90
17489;DHT22;8861;52.644;4.734;2024-03-06T10:56:39;12.60;99.90
17489;DHT22;8861;52.644;4.734;2024-03-06T10:59:09;12.60;99.90
17489;DHT22;8861;52.644;4.734;2024-03-06T11:01:37;12.60;99.90
17489;DHT22;8861;52.644;4.734;2024-03-06T11:04:06;12.70;99.90
17489;DHT22;8861;52.644;4.734;2024-03-06T11:06:33;12.60;99.90
17489;DHT22;8861;52.644;4.734;2024-03-06T11:09:00;12.50;99.90
17489;DHT22;8861;52.644;4.734;2024-03-06T11:11:30;12.30;99.90
17489;DHT22;8861;52.644;4.734;2024-03-06T11:14:00;12.10;99.90
17489;DHT22;8861;52.644;4.734;2024-03-06T11:16:28;12.10;99.90
17489;DHT22;8861;52.644;4.734;2024-03-06T11:19:05;12.20;99.90
17489;DHT22;8861;52.644;4.734;2024-03-06T11:21:33;12.30;99.90
17489;DHT22;8861;52.644;4.734;2024-03-06T11:24:19;12.30;99.90
17489;DHT22;8861;52.644;4.734;2024-03-06T11:26:49;12.30;99.90
17489;DHT22;8861;52.644;4.734;2024-03-06T11:29:18;12.30;99.90
17489;DHT22;8861;52.644;4.734;2024-03-06T11:32:02;12.20;99.90
17489;DHT22;8861;52.644;4.734;2024-03-06T11:34:29;12.10;99.90
17489;DHT22;8861;52.644;4.734;2024-03-06T11:36:57;12.10;99.90
17489;DHT22;8861;52.644;4.734;2024-03-06T11:39:27;12.10;99.90
17489;DHT22;8861;52.644;4.734;2024-03-06T11:41:57;12.10;99.90
17489;DHT22;8861;52.644;4.734;2024-03-06T11:44:24;12.30;99.90
17489;DHT22;8861;52.644;4.734;2024-03-06T11:46:57;12.30;99.90
17489;DHT22;8861;52.644;4.734;2024-03-06T11:49:26;12.20;99.90
17489;DHT22;8861;52.644;4.734;2024-03-06T11:51:56;12.20;99.90
17489;DHT22;8861;52.644;4.734;2024-03-06T11:54:23;12.00;99.90
17489;DHT22;8861;52.644;4.734;2024-03-06T11:56:53;11.90;99.90
17489;DHT22;8861;52.644;4.734;2024-03-06T11:59:22;11.70;99.90
17489;DHT22;8861;52.644;4.734;2024-03-06T12:01:50;11.50;99.90
17489;DHT22;8861;52.644;4.734;2024-03-06T12:04:19;11.40;99.90
17489;DHT22;8861;52.644;4.734;2024-03-06T12:06:46;11.40;99.90
17489;DHT22;8861;52.644;4.734;2024-03-06T12:09:13;11.60;99.90
17489;DHT22;8861;52.644;4.734;2024-03-06T12:11:41;11.80;99.90
17489;DHT22;8861;52.644;4.734;2024-03-06T12:14:13;11.90;99.90
17489;DHT22;8861;52.644;4.734;2024-03-06T12:16:43;11.90;99.90
17489;DHT22;8861;52.644;4.734;2024-03-06T12:19:10;11.80;99.90
17489;DHT22;8861;52.644;4.734;2024-03-06T12:21:39;11.90;99.90
17489;DHT22;8861;52.644;4.734;2024-03-06T12:24:08;11.90;99.90
17489;DHT22;8861;52.644;4.734;2024-03-06T12:26:35;12.00;99.90
17489;DHT22;8861;52.644;4.734;2024-03-06T12:29:06;11.90;99.90
17489;DHT22;8861;52.644;4.734;2024-03-06T12:31:35;11.90;99.90
17489;DHT22;8861;52.644;4.734;2024-03-06T12:34:04;11.80;99.90
17489;DHT22;8861;52.644;4.734;2024-03-06T12:36:32;11.70;99.90
17489;DHT22;8861;52.644;4.734;2024-03-06T12:39:01;11.70;99.90
17489;DHT22;8861;52.644;4.734;2024-03-06T12:41:28;11.90;99.90
17489;DHT22;8861;52.644;4.734;2024-03-06T12:43:56;12.10;99.90
17489;DHT22;8861;52.644;4.734;2024-03-06T12:46:23;12.30;99.90
17489;DHT22;8861;52.644;4.734;2024-03-06T12:48:52;12.40;99.90
17489;DHT22;8861;52.644;4.734;2024-03-06T12:51:23;12.40;99.90
17489;DHT22;8861;52.644;4.734;2024-03-06T12:53:50;12.60;99.90
17489;DHT22;8861;52.644;4.734;2024-03-06T12:56:17;12.60;99.90
17489;DHT22;8861;52.644;4.734;2024-03-06T12:58:44;12.70;99.90
17489;DHT22;8861;52.644;4.734;2024-03-06T13:01:11;12.80;99.90
17489;DHT22;8861;52.644;4.734;2024-03-06T13:03:38;12.70;99.90
17489;DHT22;8861;52.644;4.734;2024-03-06T13:06:06;12.70;99.90
17489;DHT22;8861;52.644;4.734;2024-03-06T13:08:34;12.50;99.90
17489;DHT22;8861;52.644;4.734;2024-03-06T13:11:01;12.20;99.90
17489;DHT22;8861;52.644;4.734;2024-03-06T13:13:28;12.00;99.90
17489;DHT22;8861;52.644;4.734;2024-03-06T13:15:58;11.90;99.90
17489;DHT22;8861;52.644;4.734;2024-03-06T13:18:25;11.80;99.90
17489;DHT22;8861;52.644;4.734;2024-03-06T13:20:52;11.80;99.90
17489;DHT22;8861;52.644;4.734;2024-03-06T13:23:19;11.70;99.90
17489;DHT22;8861;52.644;4.734;2024-03-06T13:25:48;11.70;99.90
17489;DHT22;8861;52.644;4.734;2024-03-06T13:28:14;11.70;99.90
17489;DHT22;8861;52.644;4.734;2024-03-06T13:30:41;11.70;99.90
17489;DHT22;8861;52.644;4.734;2024-03-06T13:33:08;11.70;99.90
17489;DHT22;8861;52.644;4.734;2024-03-06T13:35:36;11.70;99.90
17489;DHT22;8861;52.644;4.734;2024-03-06T13:38:03;11.70;99.90
17489;DHT22;8861;52.644;4.734;2024-03-06T13:40:30;11.70;99.90
17489;DHT22;8861;52.644;4.734;2024-03-06T13:42:59;11.70;99.90
17489;DHT22;8861;52.644;4.734;2024-03-06T13:45:26;11.60;99.90
17489;DHT22;8861;52.644;4.734;2024-03-06T13:47:54;11.60;99.90
17489;DHT22;8861;52.644;4.734;2024-03-06T13:50:21;11.60;99.90
17489;DHT22;8861;52.644;4.734;2024-03-06T13:52:51;11.60;99.90
17489;DHT22;8861;52.644;4.734;2024-03-06T13:55:17;11.60;99.90
17489;DHT22;8861;52.644;4.734;2024-03-06T13:57:44;11.60;99.90
17489;DHT22;8861;52.644;4.734;2024-03-06T14:00:14;11.60;99.90
17489;DHT22;8861;52.644;4.734;2024-03-06T14:02:43;11.60;99.90
17489;DHT22;8861;52.644;4.734;2024-03-06T14:05:11;11.60;99.90
17489;DHT22;8861;52.644;4.734;2024-03-06T14:07:38;11.70;99.90
17489;DHT22;8861;52.644;4.734;2024-03-06T14:10:07;11.70;99.90
17489;DHT22;8861;52.644;4.734;2024-03-06T14:12:35;11.80;99.90
17489;DHT22;8861;52.644;4.734;2024-03-06T14:15:03;11.90;99.90
17489;DHT22;8861;52.644;4.734;2024-03-06T14:17:32;12.00;99.90
17489;DHT22;8861;52.644;4.734;2024-03-06T14:19:59;12.00;99.90
17489;DHT22;8861;52.644;4.734;2024-03-06T14:22:26;12.10;99.90
17489;DHT22;8861;52.644;4.734;2024-03-06T14:24:53;12.10;99.90
17489;DHT22;8861;52.644;4.734;2024-03-06T14:27:20;12.10;99.90
17489;DHT22;8861;52.644;4.734;2024-03-06T14:29:47;12.10;99.90
17489;DHT22;8861;52.644;4.734;2024-03-06T14:32:14;12.10;99.90
17489;DHT22;8861;52.644;4.734;2024-03-06T14:34:43;12.00;99.90
17489;DHT22;8861;52.644;4.734;2024-03-06T14:37:10;11.90;99.90
17489;DHT22;8861;52.644;4.734;2024-03-06T14:39:37;12.00;99.90
17489;DHT22;8861;52.644;4.734;2024-03-06T14:42:06;11.90;99.90
17489;DHT22;8861;52.644;4.734;2024-03-06T14:44:33;11.90;99.90
17489;DHT22;8861;52.644;4.734;2024-03-06T14:47:01;11.90;99.90
17489;DHT22;8861;52.644;4.734;2024-03-06T14:49:28;11.90;99.90
17489;DHT22;8861;52.644;4.734;2024-03-06T14:51:56;11.90;99.90
17489;DHT22;8861;52.644;4.734;2024-03-06T14:54:23;11.90;99.90
17489;DHT22;8861;52.644;4.734;2024-03-06T14:56:51;12.00;99.90
17489;DHT22;8861;52.644;4.734;2024-03-06T14:59:19;12.00;99.90
17489;DHT22;8861;52.644;4.734;2024-03-06T15:01:47;12.00;99.90
17489;DHT22;8861;52.644;4.734;2024-03-06T15:04:15;12.00;99.90
17489;DHT22;8861;52.644;4.734;2024-03-06T15:06:42;12.00;99.90
17489;DHT22;8861;52.644;4.734;2024-03-06T15:09:11;12.10;99.90
17489;DHT22;8861;52.644;4.734;2024-03-06T15:11:41;12.10;99.90
17489;DHT22;8861;52.644;4.734;2024-03-06T15:14:08;12.10;99.90
17489;DHT22;8861;52.644;4.734;2024-03-06T15:16:36;12.00;99.90
17489;DHT22;8861;52.644;4.734;2024-03-06T15:19:05;12.00;99.90
17489;DHT22;8861;52.644;4.734;2024-03-06T15:21:32;11.90;99.90
17489;DHT22;8861;52.644;4.734;2024-03-06T15:24:00;11.80;99.90
17489;DHT22;8861;52.644;4.734;2024-03-06T15:26:28;11.80;99.90
17489;DHT22;8861;52.644;4.734;2024-03-06T15:28:56;11.70;99.90
17489;DHT22;8861;52.644;4.734;2024-03-06T15:31:23;11.70;99.90
17489;DHT22;8861;52.644;4.734;2024-03-06T15:33:51;11.70;99.90
17489;DHT22;8861;52.644;4.734;2024-03-06T15:36:18;11.70;99.90
17489;DHT22;8861;52.644;4.734;2024-03-06T15:38:45;11.70;99.90
17489;DHT22;8861;52.644;4.734;2024-03-06T15:41:12;11.70;99.90
17489;DHT22;8861;52.644;4.734;2024-03-06T15:43:40;11.60;99.90
17489;DHT22;8861;52.644;4.734;2024-03-06T15:46:08;11.60;99.90
17489;DHT22;8861;52.644;4.734;2024-03-06T15:48:35;11.60;99.90
17489;DHT22;8861;52.644;4.734;2024-03-06T15:51:02;11.50;99.90
17489;DHT22;8861;52.644;4.734;2024-03-06T15:53:29;11.40;99.90
17489;DHT22;8861;52.644;4.734;2024-03-06T15:55:57;11.30;99.90
17489;DHT22;8861;52.644;4.734;2024-03-06T15:58:24;11.30;99.90
17489;DHT22;8861;52.644;4.734;2024-03-06T16:00:52;11.20;99.90